ΕΜΥ, Εθνική Μετεωρολογική Υπηρεσία - Δελτία Καιρού, Προγνώσεις

ΑΕΡΟΝΑΥΤΙΛΙΑ

GREEK AIRPORTS CODES

LGAV 192150Z 32006KT CAVOK 14/09 Q1027 RMK NOSIG=

EUROPEAN AIRPORTS CODES

LGMG 191500Z 05005G15KT 9999 FEW020 19/11 Q1024=